createdAt,value
2017-06-18T00:00:17.192Z,0
2017-06-18T00:00:43.664Z,0
2017-06-18T00:01:10.772Z,0
2017-06-18T00:01:37.038Z,0
2017-06-18T00:02:03.296Z,0
2017-06-18T00:02:29.521Z,0
2017-06-18T00:02:55.794Z,0
2017-06-18T00:03:21.988Z,0
2017-06-18T00:03:48.199Z,0
2017-06-18T00:04:14.474Z,0
2017-06-18T00:04:40.741Z,0
2017-06-18T00:05:07.279Z,0
2017-06-18T00:05:33.547Z,0
2017-06-18T00:05:59.799Z,0
2017-06-18T00:06:26.410Z,0
2017-06-18T00:06:52.962Z,0
2017-06-18T00:07:19.169Z,0
2017-06-18T00:07:45.410Z,0
2017-06-18T00:08:11.617Z,0
2017-06-18T00:08:37.881Z,0
2017-06-18T00:09:04.073Z,0
2017-06-18T00:09:30.285Z,0
2017-06-18T00:09:56.568Z,0
2017-06-18T00:10:22.763Z,0
2017-06-18T00:10:48.973Z,0
2017-06-18T00:11:15.326Z,0
2017-06-18T00:11:41.672Z,0
2017-06-18T00:12:07.904Z,0
2017-06-18T00:12:34.463Z,0
2017-06-18T00:13:00.671Z,0
2017-06-18T00:13:26.885Z,0
2017-06-18T00:13:53.083Z,0
2017-06-18T00:14:19.291Z,0
2017-06-18T00:14:45.509Z,0
2017-06-18T00:15:11.731Z,0
2017-06-18T00:15:37.938Z,0
2017-06-18T00:16:04.276Z,0
2017-06-18T00:16:30.542Z,0
2017-06-18T00:16:56.781Z,0
2017-06-18T00:17:22.990Z,0
2017-06-18T00:17:49.195Z,0
2017-06-18T00:18:15.416Z,0
2017-06-18T00:18:41.627Z,0
2017-06-18T00:19:07.889Z,0
2017-06-18T00:19:34.080Z,0
2017-06-18T00:20:00.509Z,0
2017-06-18T00:20:26.764Z,0
2017-06-18T00:20:52.964Z,0
2017-06-18T00:21:19.174Z,0
2017-06-18T00:21:45.400Z,0
2017-06-18T00:22:11.608Z,0
2017-06-18T00:22:37.814Z,0
2017-06-18T00:23:04.034Z,0
2017-06-18T00:23:30.590Z,0
2017-06-18T00:23:56.852Z,0
2017-06-18T00:24:23.037Z,0
2017-06-18T00:24:49.281Z,0
2017-06-18T00:25:15.488Z,0
2017-06-18T00:25:41.689Z,0
2017-06-18T00:26:08.148Z,0
2017-06-18T00:26:34.358Z,0
2017-06-18T00:27:00.604Z,0
2017-06-18T00:27:26.858Z,0
2017-06-18T00:27:53.044Z,0
2017-06-18T00:28:19.242Z,0
2017-06-18T00:28:45.505Z,0
2017-06-18T00:29:11.711Z,0
2017-06-18T00:29:38.012Z,0
2017-06-18T00:30:04.228Z,0
2017-06-18T00:30:30.481Z,0
2017-06-18T00:30:56.710Z,0
2017-06-18T00:31:22.971Z,0
2017-06-18T00:31:49.211Z,0
2017-06-18T00:32:15.437Z,0
2017-06-18T00:32:41.750Z,0
2017-06-18T00:33:07.937Z,0
2017-06-18T00:33:34.150Z,0
2017-06-18T00:34:00.351Z,0
2017-06-18T00:34:26.577Z,0
2017-06-18T00:34:52.826Z,0
2017-06-18T00:35:19.033Z,0
2017-06-18T00:35:45.265Z,0
2017-06-18T00:36:11.527Z,0
2017-06-18T00:36:37.776Z,0
2017-06-18T00:37:03.976Z,0
2017-06-18T00:37:30.225Z,0
2017-06-18T00:37:56.409Z,0
2017-06-18T00:38:22.614Z,0
2017-06-18T00:38:48.782Z,0
2017-06-18T00:39:14.965Z,0
2017-06-18T00:39:41.159Z,0
2017-06-18T00:40:07.357Z,0
2017-06-18T00:40:33.597Z,0
2017-06-18T00:40:59.788Z,0
2017-06-18T00:41:25.971Z,0
2017-06-18T00:41:52.257Z,0
2017-06-18T00:42:18.395Z,0
2017-06-18T00:42:44.519Z,0
2017-06-18T00:43:10.693Z,0
2017-06-18T00:43:36.805Z,0
2017-06-18T00:44:02.923Z,0
2017-06-18T00:44:29.057Z,0
2017-06-18T00:44:55.176Z,0
2017-06-18T00:45:21.266Z,0
2017-06-18T00:45:47.382Z,0
2017-06-18T00:46:13.500Z,0
2017-06-18T00:46:39.613Z,0
2017-06-18T00:47:05.733Z,0
2017-06-18T00:47:31.849Z,0
2017-06-18T00:47:57.949Z,0
2017-06-18T00:48:24.047Z,0
2017-06-18T00:48:50.160Z,0
2017-06-18T00:49:16.261Z,0
2017-06-18T00:49:42.368Z,0
2017-06-18T00:50:08.479Z,0
2017-06-18T00:50:34.572Z,0
2017-06-18T00:51:00.681Z,0
2017-06-18T00:51:26.778Z,0
2017-06-18T00:51:52.875Z,0
2017-06-18T00:52:18.982Z,0
2017-06-18T00:52:45.083Z,0
2017-06-18T00:53:11.175Z,0
2017-06-18T00:53:37.277Z,0
2017-06-18T00:54:03.384Z,0
2017-06-18T00:54:29.478Z,0
2017-06-18T00:54:55.606Z,0
2017-06-18T00:55:21.719Z,0
2017-06-18T00:55:47.826Z,0
2017-06-18T00:56:13.927Z,0
2017-06-18T00:56:40.017Z,0
2017-06-18T00:57:06.146Z,0
2017-06-18T00:57:32.251Z,0
2017-06-18T00:57:58.337Z,0
2017-06-18T00:58:24.464Z,0
2017-06-18T00:58:50.571Z,0
2017-06-18T00:59:16.690Z,0
2017-06-18T00:59:42.812Z,0
2017-06-18T01:00:08.917Z,0
2017-06-18T01:00:35.043Z,0
2017-06-18T01:01:01.159Z,0
2017-06-18T01:01:27.268Z,0
2017-06-18T01:01:53.390Z,0
2017-06-18T01:02:19.504Z,0
2017-06-18T01:02:45.612Z,0
2017-06-18T01:03:11.714Z,0
2017-06-18T01:03:37.807Z,0
2017-06-18T01:04:03.910Z,0
2017-06-18T01:04:30.018Z,0
2017-06-18T01:04:56.105Z,0
2017-06-18T01:05:22.205Z,0
2017-06-18T01:05:48.299Z,0
2017-06-18T01:06:14.434Z,0
2017-06-18T01:06:40.536Z,0
2017-06-18T01:07:06.627Z,0
2017-06-18T01:07:32.728Z,0
2017-06-18T01:07:58.865Z,0
2017-06-18T01:08:24.979Z,0
2017-06-18T01:08:51.101Z,0
2017-06-18T01:09:17.208Z,0
2017-06-18T01:09:43.298Z,0
2017-06-18T01:10:09.395Z,0
2017-06-18T01:10:35.502Z,0
2017-06-18T01:11:01.598Z,0
2017-06-18T01:11:27.756Z,0
2017-06-18T01:11:53.868Z,0
2017-06-18T01:12:19.968Z,0
2017-06-18T01:12:46.074Z,0
2017-06-18T01:13:12.165Z,0
2017-06-18T01:13:38.263Z,0
2017-06-18T01:14:04.428Z,0
2017-06-18T01:14:30.492Z,0
2017-06-18T01:14:56.583Z,0
2017-06-18T01:15:22.718Z,0
2017-06-18T01:15:48.841Z,0
2017-06-18T01:16:14.934Z,0
2017-06-18T01:16:41.040Z,0
2017-06-18T01:17:07.161Z,0
2017-06-18T01:17:33.296Z,0
2017-06-18T01:17:59.412Z,0
2017-06-18T01:18:25.503Z,0
2017-06-18T01:18:51.614Z,0
2017-06-18T01:19:17.710Z,0
2017-06-18T01:19:43.803Z,0
2017-06-18T01:20:09.909Z,0
2017-06-18T01:20:36.023Z,0
2017-06-18T01:21:02.129Z,0
2017-06-18T01:21:28.255Z,0
2017-06-18T01:21:54.390Z,0
2017-06-18T01:22:20.502Z,0
2017-06-18T01:22:46.628Z,0
2017-06-18T01:23:12.762Z,0
2017-06-18T01:23:38.852Z,0
2017-06-18T01:24:04.949Z,0
2017-06-18T01:24:31.083Z,0
2017-06-18T01:24:57.177Z,0
2017-06-18T01:25:23.268Z,0
2017-06-18T01:25:49.377Z,0
2017-06-18T01:26:15.548Z,0
2017-06-18T01:26:41.643Z,0
2017-06-18T01:27:07.749Z,0
2017-06-18T01:27:33.876Z,0
2017-06-18T01:28:00.031Z,0
2017-06-18T01:28:26.126Z,0
2017-06-18T01:28:52.239Z,0
2017-06-18T01:29:18.350Z,0
2017-06-18T01:29:44.471Z,0
2017-06-18T01:30:10.589Z,0
2017-06-18T01:30:36.695Z,0
2017-06-18T01:31:02.797Z,0
2017-06-18T01:31:28.887Z,0
2017-06-18T01:31:54.992Z,0
2017-06-18T01:32:21.097Z,0
2017-06-18T01:32:47.234Z,0
2017-06-18T01:33:13.334Z,0
2017-06-18T01:33:39.429Z,0
2017-06-18T01:34:05.534Z,0
2017-06-18T01:34:31.660Z,0
2017-06-18T01:34:57.749Z,0
2017-06-18T01:35:23.876Z,0
2017-06-18T01:35:49.984Z,0
2017-06-18T01:36:16.073Z,0
2017-06-18T01:36:42.173Z,0
2017-06-18T01:37:08.306Z,0
2017-06-18T01:37:34.398Z,0
2017-06-18T01:38:00.495Z,0
2017-06-18T01:38:26.601Z,0
2017-06-18T01:38:52.695Z,0
2017-06-18T01:39:18.801Z,0
2017-06-18T01:39:44.890Z,0
2017-06-18T01:40:10.989Z,0
2017-06-18T01:40:37.094Z,0
2017-06-18T01:41:03.210Z,0
2017-06-18T01:41:29.306Z,0
2017-06-18T01:41:55.414Z,0
2017-06-18T01:42:21.509Z,0
2017-06-18T01:42:47.601Z,0
2017-06-18T01:43:13.709Z,0
2017-06-18T01:43:39.806Z,0
2017-06-18T01:44:05.921Z,0
2017-06-18T01:44:32.028Z,0
2017-06-18T01:44:58.127Z,0
2017-06-18T01:45:24.219Z,0
2017-06-18T01:45:50.350Z,0
2017-06-18T01:46:16.455Z,0
2017-06-18T01:46:42.569Z,0
2017-06-18T01:47:08.669Z,0
2017-06-18T01:47:34.776Z,0
2017-06-18T01:48:00.866Z,0
2017-06-18T01:48:26.987Z,0
2017-06-18T01:48:53.094Z,0
2017-06-18T01:49:19.217Z,0
2017-06-18T01:49:45.312Z,0
2017-06-18T01:50:11.438Z,0
2017-06-18T01:50:37.538Z,0
2017-06-18T01:51:03.644Z,0
2017-06-18T01:51:29.733Z,0
2017-06-18T01:51:55.829Z,0
2017-06-18T01:52:21.964Z,0
2017-06-18T01:52:48.058Z,0
2017-06-18T01:53:14.149Z,0
2017-06-18T01:53:40.260Z,0
2017-06-18T01:54:08.597Z,0
2017-06-18T01:54:35.435Z,0
2017-06-18T01:55:02.607Z,0
2017-06-18T01:55:30.473Z,0
2017-06-18T01:55:58.120Z,0
2017-06-18T01:56:25.611Z,0
2017-06-18T01:56:52.805Z,0
2017-06-18T01:57:20.367Z,0
2017-06-18T01:57:48.387Z,0
2017-06-18T01:58:14.868Z,0
2017-06-18T01:58:40.975Z,0
2017-06-18T01:59:07.101Z,0
2017-06-18T01:59:33.191Z,0
2017-06-18T01:59:59.295Z,0
2017-06-18T02:00:25.400Z,0
2017-06-18T02:00:51.513Z,0
2017-06-18T02:01:17.614Z,0
2017-06-18T02:01:43.708Z,0
2017-06-18T02:02:09.815Z,0
2017-06-18T02:02:35.916Z,0
2017-06-18T02:03:02.031Z,0
2017-06-18T02:03:28.160Z,0
2017-06-18T02:03:54.323Z,0
2017-06-18T02:04:20.437Z,0
2017-06-18T02:04:46.562Z,0
2017-06-18T02:05:12.694Z,0
2017-06-18T02:05:38.811Z,0
2017-06-18T02:06:04.909Z,0
2017-06-18T02:06:31.015Z,0
2017-06-18T02:06:57.136Z,0
2017-06-18T02:07:23.242Z,0
2017-06-18T02:07:49.330Z,0
2017-06-18T02:08:15.430Z,0
2017-06-18T02:08:41.565Z,0
2017-06-18T02:09:07.656Z,0
2017-06-18T02:09:33.752Z,0
2017-06-18T02:09:59.860Z,0
2017-06-18T02:10:25.953Z,0
2017-06-18T02:10:52.070Z,0
2017-06-18T02:11:18.179Z,0
2017-06-18T02:11:44.277Z,0
2017-06-18T02:12:10.367Z,0
2017-06-18T02:12:36.474Z,0
2017-06-18T02:13:02.569Z,0
2017-06-18T02:13:28.704Z,0
2017-06-18T02:13:54.798Z,0
2017-06-18T02:14:20.886Z,0
2017-06-18T02:14:46.996Z,0
2017-06-18T02:15:13.094Z,0
2017-06-18T02:15:39.209Z,0
2017-06-18T02:16:05.315Z,0
2017-06-18T02:16:31.417Z,0
2017-06-18T02:16:57.509Z,0
2017-06-18T02:17:23.635Z,0
2017-06-18T02:17:49.742Z,0
2017-06-18T02:18:15.834Z,0
2017-06-18T02:18:41.932Z,0
2017-06-18T02:19:08.023Z,0
2017-06-18T02:19:34.129Z,0
2017-06-18T02:20:00.229Z,0
2017-06-18T02:20:26.343Z,0
2017-06-18T02:20:52.475Z,0
2017-06-18T02:21:18.609Z,0
2017-06-18T02:21:44.723Z,0
2017-06-18T02:22:10.847Z,0
2017-06-18T02:22:36.979Z,0
2017-06-18T02:23:03.072Z,0
2017-06-18T02:23:29.217Z,0
2017-06-18T02:23:55.365Z,0
2017-06-18T02:24:21.492Z,0
2017-06-18T02:24:47.598Z,0
2017-06-18T02:25:13.686Z,0
2017-06-18T02:25:39.788Z,0
2017-06-18T02:26:05.894Z,0
2017-06-18T02:26:31.986Z,0
2017-06-18T02:26:58.080Z,0
2017-06-18T02:27:24.187Z,0
2017-06-18T02:27:50.280Z,0
2017-06-18T02:28:16.396Z,0
2017-06-18T02:28:42.533Z,0
2017-06-18T02:29:08.632Z,0
2017-06-18T02:29:34.722Z,0
2017-06-18T02:30:00.829Z,0
2017-06-18T02:30:26.929Z,0
2017-06-18T02:30:53.044Z,0
2017-06-18T02:31:19.149Z,0
2017-06-18T02:31:45.282Z,0
2017-06-18T02:32:11.371Z,0
2017-06-18T02:32:37.471Z,0
2017-06-18T02:33:03.579Z,0
2017-06-18T02:33:29.669Z,0
2017-06-18T02:33:55.764Z,0
2017-06-18T02:34:21.871Z,0
2017-06-18T02:34:47.964Z,0
2017-06-18T02:35:14.072Z,0
2017-06-18T02:35:40.156Z,0
2017-06-18T02:36:06.256Z,0
2017-06-18T02:36:32.390Z,0
2017-06-18T02:36:58.507Z,0
2017-06-18T02:37:24.603Z,0
2017-06-18T02:37:50.708Z,0
2017-06-18T02:38:16.831Z,0
2017-06-18T02:38:42.920Z,0
2017-06-18T02:39:09.082Z,0
2017-06-18T02:39:35.180Z,0
2017-06-18T02:40:01.295Z,0
2017-06-18T02:40:27.403Z,0
2017-06-18T02:40:53.522Z,0
2017-06-18T02:41:19.629Z,0
2017-06-18T02:41:45.781Z,0
2017-06-18T02:42:11.872Z,0
2017-06-18T02:42:37.982Z,0
2017-06-18T02:43:04.106Z,0
2017-06-18T02:43:30.196Z,0
2017-06-18T02:43:56.352Z,0
2017-06-18T02:44:22.509Z,0
2017-06-18T02:44:48.599Z,0
2017-06-18T02:45:14.703Z,0
2017-06-18T02:45:40.808Z,0
2017-06-18T02:46:06.926Z,0
2017-06-18T02:46:33.050Z,0
2017-06-18T02:46:59.166Z,0
2017-06-18T02:47:25.268Z,0
2017-06-18T02:47:51.369Z,0
2017-06-18T02:48:17.486Z,0
2017-06-18T02:48:43.586Z,0
2017-06-18T02:49:09.694Z,0
2017-06-18T02:49:35.807Z,0
2017-06-18T02:50:01.909Z,0
2017-06-18T02:50:28.042Z,0
2017-06-18T02:50:54.186Z,0
2017-06-18T02:51:20.283Z,0
2017-06-18T02:51:46.381Z,0
2017-06-18T02:52:12.483Z,0
2017-06-18T02:52:38.590Z,0
2017-06-18T02:53:04.677Z,0
2017-06-18T02:53:30.777Z,0
2017-06-18T02:53:56.913Z,0
2017-06-18T02:54:23.003Z,0
2017-06-18T02:54:49.099Z,0
2017-06-18T02:55:15.233Z,0
2017-06-18T02:55:41.329Z,0
2017-06-18T02:56:07.444Z,0
2017-06-18T02:56:33.555Z,0
2017-06-18T02:56:59.650Z,0
2017-06-18T02:57:25.753Z,0
2017-06-18T02:57:51.844Z,0
2017-06-18T02:58:17.940Z,5
2017-06-18T02:58:44.046Z,5
2017-06-18T02:59:10.140Z,5
2017-06-18T02:59:36.255Z,5
2017-06-18T03:00:02.394Z,5
2017-06-18T03:00:28.490Z,5
2017-06-18T03:00:54.606Z,5
2017-06-18T03:01:20.712Z,5
2017-06-18T03:01:46.838Z,5
2017-06-18T03:02:12.928Z,5
2017-06-18T03:02:39.031Z,5
2017-06-18T03:03:05.123Z,5
2017-06-18T03:03:31.234Z,5
2017-06-18T03:03:57.357Z,5
2017-06-18T03:04:23.448Z,5
2017-06-18T03:04:49.553Z,5
2017-06-18T03:05:15.679Z,5
2017-06-18T03:05:41.770Z,5
2017-06-18T03:06:07.873Z,5
2017-06-18T03:06:33.981Z,5
2017-06-18T03:07:00.120Z,10
2017-06-18T03:07:26.220Z,10
2017-06-18T03:07:52.328Z,10
2017-06-18T03:08:18.419Z,10
2017-06-18T03:08:44.528Z,10
2017-06-18T03:09:10.645Z,10
2017-06-18T03:09:36.774Z,10
2017-06-18T03:10:02.882Z,10
2017-06-18T03:10:28.970Z,10
2017-06-18T03:10:55.072Z,10
2017-06-18T03:11:21.206Z,10
2017-06-18T03:11:47.297Z,10
2017-06-18T03:12:13.394Z,10
2017-06-18T03:12:39.530Z,10
2017-06-18T03:13:05.623Z,15
2017-06-18T03:13:31.713Z,15
2017-06-18T03:13:57.849Z,15
2017-06-18T03:14:23.972Z,15
2017-06-18T03:14:50.063Z,15
2017-06-18T03:15:16.224Z,15
2017-06-18T03:15:42.320Z,15
2017-06-18T03:16:08.412Z,15
2017-06-18T03:16:34.539Z,15
2017-06-18T03:17:00.646Z,15
2017-06-18T03:17:26.734Z,15
2017-06-18T03:17:52.837Z,20
2017-06-18T03:18:18.943Z,20
2017-06-18T03:18:45.035Z,20
2017-06-18T03:19:11.153Z,20
2017-06-18T03:19:37.250Z,20
2017-06-18T03:20:03.353Z,20
2017-06-18T03:20:29.487Z,20
2017-06-18T03:20:55.578Z,20
2017-06-18T03:21:21.677Z,20
2017-06-18T03:21:47.788Z,20
2017-06-18T03:22:13.903Z,20
2017-06-18T03:22:40.027Z,25
2017-06-18T03:23:06.186Z,25
2017-06-18T03:23:32.305Z,25
2017-06-18T03:23:58.396Z,25
2017-06-18T03:24:24.505Z,25
2017-06-18T03:24:50.630Z,25
2017-06-18T03:25:16.761Z,25
2017-06-18T03:25:42.879Z,25
2017-06-18T03:26:08.975Z,25
2017-06-18T03:26:35.082Z,30
2017-06-18T03:27:01.201Z,30
2017-06-18T03:27:27.342Z,30
2017-06-18T03:27:53.452Z,30
2017-06-18T03:28:19.577Z,30
2017-06-18T03:28:45.668Z,30
2017-06-18T03:29:11.800Z,30
2017-06-18T03:29:37.898Z,30
2017-06-18T03:30:04.014Z,35
2017-06-18T03:30:30.145Z,35
2017-06-18T03:30:56.261Z,35
2017-06-18T03:31:22.373Z,35
2017-06-18T03:31:48.495Z,35
2017-06-18T03:32:14.586Z,35
2017-06-18T03:32:40.692Z,35
2017-06-18T03:33:06.821Z,35
2017-06-18T03:33:32.911Z,35
2017-06-18T03:33:59.015Z,40
2017-06-18T03:34:25.120Z,40
2017-06-18T03:34:51.208Z,40
2017-06-18T03:35:17.310Z,40
2017-06-18T03:35:43.418Z,40
2017-06-18T03:36:09.508Z,40
2017-06-18T03:36:35.664Z,40
2017-06-18T03:37:01.753Z,40
2017-06-18T03:37:27.857Z,40
2017-06-18T03:37:53.968Z,40
2017-06-18T03:38:20.053Z,45
2017-06-18T03:38:46.152Z,45
2017-06-18T03:39:12.259Z,45
2017-06-18T03:39:38.377Z,45
2017-06-18T03:40:04.501Z,45
2017-06-18T03:40:30.608Z,45
2017-06-18T03:40:56.701Z,45
2017-06-18T03:41:22.791Z,50
2017-06-18T03:41:48.894Z,50
2017-06-18T03:42:14.993Z,50
2017-06-18T03:42:41.097Z,50
2017-06-18T03:43:07.187Z,50
2017-06-18T03:43:33.284Z,50
2017-06-18T03:43:59.416Z,50
2017-06-18T03:44:25.539Z,50
2017-06-18T03:44:51.629Z,55
2017-06-18T03:45:17.738Z,55
2017-06-18T03:45:43.833Z,55
2017-06-18T03:46:09.973Z,55
2017-06-18T03:46:36.097Z,55
2017-06-18T03:47:02.205Z,55
2017-06-18T03:47:28.305Z,55
2017-06-18T03:47:54.399Z,55
2017-06-18T03:48:20.512Z,55
2017-06-18T03:48:46.647Z,55
2017-06-18T03:49:12.744Z,60
2017-06-18T03:49:38.836Z,60
2017-06-18T03:50:04.939Z,60
2017-06-18T03:50:31.040Z,60
2017-06-18T03:50:57.131Z,60
2017-06-18T03:51:23.233Z,60
2017-06-18T03:51:49.339Z,60
2017-06-18T03:52:15.449Z,60
2017-06-18T03:52:41.550Z,60
2017-06-18T03:53:07.671Z,65
2017-06-18T03:53:33.778Z,65
2017-06-18T03:53:59.879Z,65
2017-06-18T03:54:25.969Z,65
2017-06-18T03:54:52.073Z,70
2017-06-18T03:55:18.178Z,70
2017-06-18T03:55:44.264Z,70
2017-06-18T03:56:10.390Z,70
2017-06-18T03:56:36.497Z,70
2017-06-18T03:57:02.590Z,70
2017-06-18T03:57:28.685Z,70
2017-06-18T03:57:54.890Z,70
2017-06-18T03:58:20.985Z,75
2017-06-18T03:58:47.100Z,75
2017-06-18T03:59:13.210Z,75
2017-06-18T03:59:39.336Z,75
2017-06-18T04:00:05.426Z,80
2017-06-18T04:00:31.532Z,80
2017-06-18T04:00:57.631Z,80
2017-06-18T04:01:23.745Z,80
2017-06-18T04:01:49.901Z,85
2017-06-18T04:02:16.009Z,85
2017-06-18T04:02:42.099Z,85
2017-06-18T04:03:08.201Z,85
2017-06-18T04:03:34.308Z,85
2017-06-18T04:04:00.398Z,85
2017-06-18T04:04:26.502Z,90
2017-06-18T04:04:52.592Z,90
2017-06-18T04:05:18.695Z,90
2017-06-18T04:05:44.801Z,90
2017-06-18T04:06:10.888Z,90
2017-06-18T04:06:36.989Z,90
2017-06-18T04:07:03.093Z,90
2017-06-18T04:07:29.213Z,90
2017-06-18T04:07:55.309Z,90
2017-06-18T04:08:21.442Z,90
2017-06-18T04:08:47.535Z,90
2017-06-18T04:09:13.625Z,90
2017-06-18T04:09:39.729Z,95
2017-06-18T04:10:05.829Z,95
2017-06-18T04:10:31.935Z,95
2017-06-18T04:10:58.023Z,100
2017-06-18T04:11:24.122Z,100
2017-06-18T04:11:50.256Z,100
2017-06-18T04:12:16.349Z,100
2017-06-18T04:12:42.438Z,100
2017-06-18T04:13:08.548Z,100
2017-06-18T04:13:34.645Z,105
2017-06-18T04:14:00.737Z,105
2017-06-18T04:14:26.842Z,105
2017-06-18T04:14:52.971Z,105
2017-06-18T04:15:19.072Z,105
2017-06-18T04:15:45.165Z,105
2017-06-18T04:16:11.254Z,110
2017-06-18T04:16:37.365Z,110
2017-06-18T04:17:03.461Z,110
2017-06-18T04:17:29.553Z,110
2017-06-18T04:17:55.659Z,110
2017-06-18T04:18:21.759Z,110
2017-06-18T04:18:47.850Z,115
2017-06-18T04:19:13.978Z,115
2017-06-18T04:19:40.085Z,115
2017-06-18T04:20:06.177Z,115
2017-06-18T04:20:32.300Z,115
2017-06-18T04:20:58.419Z,115
2017-06-18T04:21:24.524Z,115
2017-06-18T04:21:50.623Z,120
2017-06-18T04:22:16.714Z,120
2017-06-18T04:22:42.817Z,120
2017-06-18T04:23:08.953Z,120
2017-06-18T04:23:35.068Z,120
2017-06-18T04:24:01.167Z,120
2017-06-18T04:24:27.274Z,120
2017-06-18T04:24:53.365Z,125
2017-06-18T04:25:19.488Z,125
2017-06-18T04:25:45.594Z,125
2017-06-18T04:26:11.688Z,125
2017-06-18T04:26:37.799Z,125
2017-06-18T04:27:03.883Z,125
2017-06-18T04:27:29.983Z,130
2017-06-18T04:27:56.089Z,130
2017-06-18T04:28:22.179Z,125
2017-06-18T04:28:48.326Z,125
2017-06-18T04:29:14.461Z,125
2017-06-18T04:29:40.578Z,135
2017-06-18T04:30:06.695Z,140
2017-06-18T04:30:32.805Z,150
2017-06-18T04:30:58.903Z,160
2017-06-18T04:31:24.991Z,170
2017-06-18T04:31:51.098Z,170
2017-06-18T04:32:17.239Z,170
2017-06-18T04:32:43.345Z,165
2017-06-18T04:33:09.438Z,170
2017-06-18T04:33:35.529Z,160
2017-06-18T04:34:01.637Z,150
2017-06-18T04:34:27.734Z,145
2017-06-18T04:34:53.827Z,145
2017-06-18T04:35:19.960Z,150
2017-06-18T04:35:46.060Z,150
2017-06-18T04:36:12.152Z,150
2017-06-18T04:36:38.255Z,155
2017-06-18T04:37:04.362Z,155
2017-06-18T04:37:30.480Z,155
2017-06-18T04:37:56.577Z,160
2017-06-18T04:38:22.691Z,185
2017-06-18T04:38:48.799Z,250
2017-06-18T04:39:14.927Z,350
2017-06-18T04:39:41.022Z,450
2017-06-18T04:40:07.124Z,555
2017-06-18T04:40:33.261Z,650
2017-06-18T04:40:59.374Z,720
2017-06-18T04:41:25.476Z,710
2017-06-18T04:41:51.580Z,665
2017-06-18T04:42:17.669Z,650
2017-06-18T04:42:43.815Z,640
2017-06-18T04:43:09.950Z,650
2017-06-18T04:43:36.057Z,670
2017-06-18T04:44:02.160Z,695
2017-06-18T04:44:28.269Z,705
2017-06-18T04:44:54.368Z,690
2017-06-18T04:45:20.459Z,700
2017-06-18T04:45:46.568Z,695
2017-06-18T04:46:12.668Z,690
2017-06-18T04:46:38.758Z,685
2017-06-18T04:47:04.864Z,670
2017-06-18T04:47:30.970Z,665
2017-06-18T04:47:57.060Z,680
2017-06-18T04:48:23.161Z,730
2017-06-18T04:48:49.257Z,775
2017-06-18T04:49:15.393Z,810
2017-06-18T04:49:41.493Z,835
2017-06-18T04:50:07.585Z,850
2017-06-18T04:50:33.690Z,860
2017-06-18T04:50:59.797Z,875
2017-06-18T04:51:25.934Z,885
2017-06-18T04:51:52.089Z,895
2017-06-18T04:52:18.195Z,890
2017-06-18T04:52:44.311Z,870
2017-06-18T04:53:10.409Z,860
2017-06-18T04:53:36.518Z,870
2017-06-18T04:54:02.642Z,860
2017-06-18T04:54:28.747Z,860
2017-06-18T04:54:54.835Z,860
2017-06-18T04:55:20.936Z,875
2017-06-18T04:55:47.043Z,930
2017-06-18T04:56:13.136Z,960
2017-06-18T04:56:39.236Z,965
2017-06-18T04:57:05.344Z,975
2017-06-18T04:57:31.438Z,955
2017-06-18T04:57:57.554Z,910
2017-06-18T04:58:23.667Z,875
2017-06-18T04:58:49.765Z,835
2017-06-18T04:59:15.860Z,860
2017-06-18T04:59:41.969Z,915
2017-06-18T05:00:08.063Z,935
2017-06-18T05:00:34.170Z,935
2017-06-18T05:01:00.267Z,935
2017-06-18T05:01:26.359Z,990
2017-06-18T05:01:52.500Z,1060
2017-06-18T05:02:18.599Z,1025
2017-06-18T05:02:44.719Z,965
2017-06-18T05:03:10.827Z,880
2017-06-18T05:03:37.259Z,770
2017-06-18T05:04:03.354Z,720
2017-06-18T05:04:29.460Z,695
2017-06-18T05:04:55.596Z,660
2017-06-18T05:05:21.744Z,615
2017-06-18T05:05:47.870Z,585
2017-06-18T05:06:13.963Z,560
2017-06-18T05:06:40.074Z,545
2017-06-18T05:07:06.206Z,540
2017-06-18T05:07:32.326Z,525
2017-06-18T05:07:58.459Z,510
2017-06-18T05:08:24.570Z,510
2017-06-18T05:08:50.661Z,510
2017-06-18T05:09:16.786Z,515
2017-06-18T05:09:42.894Z,520
2017-06-18T05:10:08.984Z,535
2017-06-18T05:10:35.083Z,615
2017-06-18T05:11:01.236Z,715
2017-06-18T05:11:27.343Z,805
2017-06-18T05:11:53.481Z,835
2017-06-18T05:12:19.570Z,775
2017-06-18T05:12:45.673Z,615
2017-06-18T05:13:11.842Z,420
2017-06-18T05:13:37.929Z,325
2017-06-18T05:14:04.027Z,275
2017-06-18T05:14:30.136Z,270
2017-06-18T05:14:56.232Z,265
2017-06-18T05:15:22.327Z,260
2017-06-18T05:15:48.469Z,255
2017-06-18T05:16:14.568Z,255
2017-06-18T05:16:40.675Z,250
2017-06-18T05:17:06.791Z,250
2017-06-18T05:17:32.888Z,250
2017-06-18T05:17:59.024Z,245
2017-06-18T05:18:25.122Z,245
2017-06-18T05:18:51.265Z,245
2017-06-18T05:19:17.377Z,245
2017-06-18T05:19:43.477Z,245
2017-06-18T05:20:09.572Z,245
2017-06-18T05:20:35.681Z,250
2017-06-18T05:21:01.784Z,245
2017-06-18T05:21:27.902Z,245
2017-06-18T05:21:54.009Z,245
2017-06-18T05:22:20.102Z,245
2017-06-18T05:22:46.215Z,245
2017-06-18T05:23:12.395Z,245
2017-06-18T05:23:38.488Z,245
2017-06-18T05:24:04.599Z,245
2017-06-18T05:24:30.757Z,245
2017-06-18T05:24:56.875Z,245
2017-06-18T05:25:23.005Z,245
2017-06-18T05:25:49.113Z,245
2017-06-18T05:26:15.202Z,245
2017-06-18T05:26:41.331Z,245
2017-06-18T05:27:07.439Z,245
2017-06-18T05:27:33.535Z,245
2017-06-18T05:27:59.633Z,245
2017-06-18T05:28:25.770Z,240
2017-06-18T05:28:51.894Z,240
2017-06-18T05:29:17.987Z,240
2017-06-18T05:29:44.097Z,240
2017-06-18T05:30:10.195Z,240
2017-06-18T05:30:36.287Z,240
2017-06-18T05:31:02.396Z,240
2017-06-18T05:31:28.525Z,240
2017-06-18T05:31:54.641Z,240
2017-06-18T05:32:20.745Z,245
2017-06-18T05:32:46.884Z,240
2017-06-18T05:33:13.004Z,240
2017-06-18T05:33:39.104Z,240
2017-06-18T05:34:05.219Z,240
2017-06-18T05:34:31.327Z,240
2017-06-18T05:34:57.427Z,235
2017-06-18T05:35:23.517Z,240
2017-06-18T05:35:49.624Z,240
2017-06-18T05:36:15.760Z,240
2017-06-18T05:36:41.900Z,240
2017-06-18T05:37:08.027Z,240
2017-06-18T05:37:34.136Z,240
2017-06-18T05:38:00.229Z,240
2017-06-18T05:38:26.326Z,240
2017-06-18T05:38:52.426Z,240
2017-06-18T05:39:18.529Z,240
2017-06-18T05:39:44.638Z,240
2017-06-18T05:40:10.726Z,240
2017-06-18T05:40:36.829Z,245
2017-06-18T05:41:02.935Z,245
2017-06-18T05:41:29.026Z,240
2017-06-18T05:41:55.126Z,240
2017-06-18T05:42:21.234Z,240
2017-06-18T05:42:47.332Z,240
2017-06-18T05:43:13.424Z,240
2017-06-18T05:43:39.561Z,240
2017-06-18T05:44:05.660Z,240
2017-06-18T05:44:31.766Z,240
2017-06-18T05:44:57.911Z,245
2017-06-18T05:45:24.032Z,245
2017-06-18T05:45:50.169Z,245
2017-06-18T05:46:16.265Z,245
2017-06-18T05:46:42.357Z,245
2017-06-18T05:47:08.468Z,240
2017-06-18T05:47:34.593Z,240
2017-06-18T05:48:00.687Z,245
2017-06-18T05:48:26.793Z,245
2017-06-18T05:48:52.896Z,245
2017-06-18T05:49:18.988Z,245
2017-06-18T05:49:45.093Z,245
2017-06-18T05:50:11.187Z,240
2017-06-18T05:50:37.324Z,245
2017-06-18T05:51:03.423Z,245
2017-06-18T05:51:29.516Z,245
2017-06-18T05:51:55.624Z,245
2017-06-18T05:52:21.725Z,245
2017-06-18T05:52:47.814Z,245
2017-06-18T05:53:13.919Z,250
2017-06-18T05:53:40.027Z,250
2017-06-18T05:54:06.116Z,250
2017-06-18T05:54:32.220Z,250
2017-06-18T05:54:58.327Z,250
2017-06-18T05:55:24.418Z,250
2017-06-18T05:55:50.522Z,250
2017-06-18T05:56:16.641Z,255
2017-06-18T05:56:42.768Z,250
2017-06-18T05:57:08.878Z,255
2017-06-18T05:57:34.995Z,255
2017-06-18T05:58:01.096Z,255
2017-06-18T05:58:27.229Z,255
2017-06-18T05:58:53.320Z,260
2017-06-18T05:59:19.421Z,260
2017-06-18T05:59:45.555Z,260
2017-06-18T06:00:11.649Z,260
2017-06-18T06:00:37.739Z,265
2017-06-18T06:01:03.844Z,260
2017-06-18T06:01:29.944Z,265
2017-06-18T06:01:56.053Z,265
2017-06-18T06:02:22.173Z,265
2017-06-18T06:02:48.274Z,265
2017-06-18T06:03:14.381Z,265
2017-06-18T06:03:40.476Z,265
2017-06-18T06:04:06.893Z,265
2017-06-18T06:04:33.003Z,265
2017-06-18T06:04:59.101Z,265
2017-06-18T06:05:25.218Z,265
2017-06-18T06:05:51.326Z,265
2017-06-18T06:06:17.427Z,265
2017-06-18T06:06:43.529Z,265
2017-06-18T06:07:09.623Z,265
2017-06-18T06:07:35.716Z,265
2017-06-18T06:08:01.826Z,270
2017-06-18T06:08:27.924Z,270
2017-06-18T06:08:54.016Z,270
2017-06-18T06:09:20.122Z,270
2017-06-18T06:09:46.223Z,270
2017-06-18T06:10:12.314Z,270
2017-06-18T06:10:38.444Z,275
2017-06-18T06:11:04.554Z,265
2017-06-18T06:11:30.645Z,265
2017-06-18T06:11:56.746Z,270
2017-06-18T06:12:22.854Z,270
2017-06-18T06:12:48.974Z,270
2017-06-18T06:13:15.074Z,270
2017-06-18T06:13:41.186Z,265
2017-06-18T06:14:07.303Z,255
2017-06-18T06:14:33.396Z,245
2017-06-18T06:14:59.534Z,240